sensor_id;sensor_type;location;lat;lon;timestamp;pressure;altitude;pressure_sealevel;temperature;humidity
13456;BME280;6800;50.940;6.940;2023-08-21T00:02:53;101409.56;;;28.11;51.30
13456;BME280;6800;50.940;6.940;2023-08-21T00:06:54;101407.34;;;28.00;51.72
13456;BME280;6800;50.940;6.940;2023-08-21T00:10:55;101404.34;;;27.95;51.93
13456;BME280;6800;50.940;6.940;2023-08-21T00:14:57;101410.06;;;27.92;52.00
13456;BME280;6800;50.940;6.940;2023-08-21T00:18:59;101401.66;;;27.95;52.25
13456;BME280;6800;50.940;6.940;2023-08-21T00:23:00;101399.59;;;27.82;52.49
13456;BME280;6800;50.940;6.940;2023-08-21T00:27:01;101405.88;;;27.89;52.71
13456;BME280;6800;50.940;6.940;2023-08-21T00:31:05;101399.09;;;27.78;53.07
13456;BME280;6800;50.940;6.940;2023-08-21T00:35:07;101398.97;;;27.95;52.76
13456;BME280;6800;50.940;6.940;2023-08-21T00:39:09;101400.13;;;27.77;52.89
13456;BME280;6800;50.940;6.940;2023-08-21T00:43:10;101399.97;;;27.56;53.51
13456;BME280;6800;50.940;6.940;2023-08-21T00:47:11;101397.81;;;27.52;53.67
13456;BME280;6800;50.940;6.940;2023-08-21T00:51:15;101395.75;;;27.39;54.12
13456;BME280;6800;50.940;6.940;2023-08-21T00:55:17;101400.72;;;27.42;54.05
13456;BME280;6800;50.940;6.940;2023-08-21T00:59:20;101401.63;;;27.35;53.96
13456;BME280;6800;50.940;6.940;2023-08-21T01:03:22;101409.25;;;27.15;54.75
13456;BME280;6800;50.940;6.940;2023-08-21T01:07:23;101404.22;;;27.20;54.10
13456;BME280;6800;50.940;6.940;2023-08-21T01:15:38;101408.69;;;27.28;53.89
13456;BME280;6800;50.940;6.940;2023-08-21T01:19:41;101403.69;;;26.94;55.09
13456;BME280;6800;50.940;6.940;2023-08-21T01:23:43;101414.53;;;27.00;54.95
13456;BME280;6800;50.940;6.940;2023-08-21T01:27:48;101406.03;;;26.97;55.29
13456;BME280;6800;50.940;6.940;2023-08-21T01:32:21;101418.16;;;27.16;54.32
13456;BME280;6800;50.940;6.940;2023-08-21T01:36:26;101412.47;;;27.11;54.77
13456;BME280;6800;50.940;6.940;2023-08-21T01:40:27;101405.41;;;26.87;55.23
13456;BME280;6800;50.940;6.940;2023-08-21T01:44:29;101405.94;;;26.66;56.46
13456;BME280;6800;50.940;6.940;2023-08-21T01:48:30;101406.88;;;26.51;57.25
13456;BME280;6800;50.940;6.940;2023-08-21T01:52:32;101406.44;;;26.78;56.29
13456;BME280;6800;50.940;6.940;2023-08-21T01:56:33;101407.28;;;26.70;56.72
13456;BME280;6800;50.940;6.940;2023-08-21T02:00:34;101410.03;;;27.01;55.72
13456;BME280;6800;50.940;6.940;2023-08-21T02:04:36;101408.47;;;26.76;56.43
13456;BME280;6800;50.940;6.940;2023-08-21T02:08:37;101411.94;;;26.84;56.23
13456;BME280;6800;50.940;6.940;2023-08-21T02:12:39;101410.09;;;26.85;55.64
13456;BME280;6800;50.940;6.940;2023-08-21T02:16:42;101403.88;;;26.92;55.69
13456;BME280;6800;50.940;6.940;2023-08-21T02:20:43;101401.44;;;26.12;58.56
13456;BME280;6800;50.940;6.940;2023-08-21T02:24:44;101401.53;;;26.35;57.76
13456;BME280;6800;50.940;6.940;2023-08-21T02:28:46;101412.28;;;25.86;59.45
13456;BME280;6800;50.940;6.940;2023-08-21T02:32:47;101405.59;;;25.42;61.41
13456;BME280;6800;50.940;6.940;2023-08-21T02:36:49;101399.56;;;25.56;61.24
13456;BME280;6800;50.940;6.940;2023-08-21T02:40:50;101398.56;;;26.05;59.52
13456;BME280;6800;50.940;6.940;2023-08-21T02:44:51;101401.91;;;25.67;60.96
13456;BME280;6800;50.940;6.940;2023-08-21T02:48:53;101399.25;;;25.59;60.93
13456;BME280;6800;50.940;6.940;2023-08-21T02:52:54;101405.41;;;25.92;59.95
13456;BME280;6800;50.940;6.940;2023-08-21T02:56:56;101407.41;;;26.38;58.76
13456;BME280;6800;50.940;6.940;2023-08-21T03:00:57;101405.53;;;26.47;57.87
13456;BME280;6800;50.940;6.940;2023-08-21T03:04:58;101420.41;;;26.57;57.64
13456;BME280;6800;50.940;6.940;2023-08-21T03:09:00;101408.19;;;26.55;57.66
13456;BME280;6800;50.940;6.940;2023-08-21T03:13:01;101399.81;;;26.50;57.18
13456;BME280;6800;50.940;6.940;2023-08-21T03:17:03;101406.28;;;26.08;58.51
13456;BME280;6800;50.940;6.940;2023-08-21T03:21:04;101415.22;;;26.48;57.46
13456;BME280;6800;50.940;6.940;2023-08-21T03:25:06;101400.16;;;26.55;57.08
13456;BME280;6800;50.940;6.940;2023-08-21T03:29:07;101391.13;;;26.48;57.21
13456;BME280;6800;50.940;6.940;2023-08-21T03:33:09;101391.59;;;26.51;57.20
13456;BME280;6800;50.940;6.940;2023-08-21T03:37:10;101389.22;;;25.61;59.89
13456;BME280;6800;50.940;6.940;2023-08-21T03:41:12;101388.38;;;26.09;58.96
13456;BME280;6800;50.940;6.940;2023-08-21T03:45:13;101387.69;;;26.23;58.15
13456;BME280;6800;50.940;6.940;2023-08-21T03:49:15;101378.78;;;26.06;58.59
13456;BME280;6800;50.940;6.940;2023-08-21T03:53:19;101377.84;;;25.91;59.12
13456;BME280;6800;50.940;6.940;2023-08-21T03:57:21;101377.81;;;26.07;58.58
13456;BME280;6800;50.940;6.940;2023-08-21T04:01:22;101390.84;;;26.02;59.00
13456;BME280;6800;50.940;6.940;2023-08-21T04:05:24;101400.22;;;26.30;58.26
13456;BME280;6800;50.940;6.940;2023-08-21T04:09:25;101394.66;;;26.32;58.57
13456;BME280;6800;50.940;6.940;2023-08-21T04:13:26;101398.69;;;26.28;57.97
13456;BME280;6800;50.940;6.940;2023-08-21T04:17:28;101392.06;;;26.08;58.84
13456;BME280;6800;50.940;6.940;2023-08-21T04:21:29;101397.06;;;25.71;60.44
13456;BME280;6800;50.940;6.940;2023-08-21T04:25:31;101396.75;;;25.66;60.40
13456;BME280;6800;50.940;6.940;2023-08-21T04:29:32;101400.06;;;25.92;59.16
13456;BME280;6800;50.940;6.940;2023-08-21T04:33:34;101400.25;;;26.14;58.92
13456;BME280;6800;50.940;6.940;2023-08-21T04:37:37;101396.22;;;26.18;57.77
13456;BME280;6800;50.940;6.940;2023-08-21T04:41:40;101401.75;;;26.25;57.47
13456;BME280;6800;50.940;6.940;2023-08-21T04:45:51;101401.25;;;25.89;57.71
13456;BME280;6800;50.940;6.940;2023-08-21T04:49:56;101404.75;;;25.82;57.95
13456;BME280;6800;50.940;6.940;2023-08-21T04:53:58;101407.25;;;25.99;56.80
13456;BME280;6800;50.940;6.940;2023-08-21T04:58:00;101417.81;;;25.93;57.71
13456;BME280;6800;50.940;6.940;2023-08-21T05:02:02;101423.31;;;25.83;57.96
13456;BME280;6800;50.940;6.940;2023-08-21T05:06:04;101422.97;;;26.02;57.41
13456;BME280;6800;50.940;6.940;2023-08-21T05:10:06;101428.00;;;26.13;56.63
13456;BME280;6800;50.940;6.940;2023-08-21T05:14:07;101432.00;;;26.25;57.08
13456;BME280;6800;50.940;6.940;2023-08-21T05:18:08;101431.31;;;26.40;57.08
13456;BME280;6800;50.940;6.940;2023-08-21T05:22:10;101430.31;;;26.41;57.52
13456;BME280;6800;50.940;6.940;2023-08-21T05:26:11;101430.09;;;26.58;57.25
13456;BME280;6800;50.940;6.940;2023-08-21T05:30:13;101432.94;;;26.65;57.12
13456;BME280;6800;50.940;6.940;2023-08-21T05:34:14;101436.94;;;26.69;56.95
13456;BME280;6800;50.940;6.940;2023-08-21T05:38:16;101429.91;;;26.68;57.00
13456;BME280;6800;50.940;6.940;2023-08-21T05:42:17;101428.88;;;26.77;56.31
13456;BME280;6800;50.940;6.940;2023-08-21T05:46:18;101426.66;;;26.88;56.30
13456;BME280;6800;50.940;6.940;2023-08-21T05:50:20;101433.91;;;26.72;56.79
13456;BME280;6800;50.940;6.940;2023-08-21T05:54:21;101436.06;;;27.15;55.72
13456;BME280;6800;50.940;6.940;2023-08-21T05:58:24;101437.38;;;27.27;55.40
13456;BME280;6800;50.940;6.940;2023-08-21T06:02:30;101446.47;;;27.49;54.20
13456;BME280;6800;50.940;6.940;2023-08-21T06:06:31;101447.53;;;27.85;54.09
13456;BME280;6800;50.940;6.940;2023-08-21T06:10:33;101449.75;;;28.04;52.91
13456;BME280;6800;50.940;6.940;2023-08-21T06:14:34;101447.75;;;28.58;52.51
13456;BME280;6800;50.940;6.940;2023-08-21T06:18:36;101450.22;;;28.74;50.82
13456;BME280;6800;50.940;6.940;2023-08-21T06:22:37;101449.75;;;28.85;50.92
13456;BME280;6800;50.940;6.940;2023-08-21T06:26:40;101452.22;;;29.01;49.90
13456;BME280;6800;50.940;6.940;2023-08-21T06:30:41;101459.09;;;29.18;50.31
13456;BME280;6800;50.940;6.940;2023-08-21T06:34:42;101451.06;;;30.24;46.99
13456;BME280;6800;50.940;6.940;2023-08-21T06:38:44;101450.84;;;30.81;46.21
13456;BME280;6800;50.940;6.940;2023-08-21T06:42:45;101457.47;;;31.26;45.04
13456;BME280;6800;50.940;6.940;2023-08-21T06:46:46;101453.00;;;31.46;43.52
13456;BME280;6800;50.940;6.940;2023-08-21T06:50:48;101457.19;;;31.81;43.15
13456;BME280;6800;50.940;6.940;2023-08-21T06:54:50;101448.91;;;32.15;41.58
13456;BME280;6800;50.940;6.940;2023-08-21T06:58:51;101449.84;;;32.86;41.21
13456;BME280;6800;50.940;6.940;2023-08-21T07:02:53;101450.53;;;33.20;40.51
13456;BME280;6800;50.940;6.940;2023-08-21T07:06:55;101452.03;;;33.53;39.74
13456;BME280;6800;50.940;6.940;2023-08-21T07:10:56;101452.25;;;33.52;38.94
13456;BME280;6800;50.940;6.940;2023-08-21T07:14:58;101448.56;;;34.45;37.43
13456;BME280;6800;50.940;6.940;2023-08-21T07:18:59;101445.22;;;33.44;38.91
13456;BME280;6800;50.940;6.940;2023-08-21T07:23:00;101441.91;;;34.66;37.81
13456;BME280;6800;50.940;6.940;2023-08-21T07:27:02;101448.34;;;35.37;36.33
13456;BME280;6800;50.940;6.940;2023-08-21T07:31:03;101446.91;;;35.76;34.28
13456;BME280;6800;50.940;6.940;2023-08-21T07:35:05;101441.91;;;36.60;34.13
13456;BME280;6800;50.940;6.940;2023-08-21T07:39:06;101451.47;;;37.14;33.33
13456;BME280;6800;50.940;6.940;2023-08-21T07:43:08;101444.97;;;37.88;31.32
13456;BME280;6800;50.940;6.940;2023-08-21T07:47:09;101448.28;;;37.45;32.41
13456;BME280;6800;50.940;6.940;2023-08-21T07:51:12;101445.47;;;37.40;32.22
13456;BME280;6800;50.940;6.940;2023-08-21T07:55:14;101446.28;;;38.74;30.51
13456;BME280;6800;50.940;6.940;2023-08-21T07:59:16;101447.91;;;38.53;29.85
13456;BME280;6800;50.940;6.940;2023-08-21T08:03:17;101451.75;;;39.17;29.59
13456;BME280;6800;50.940;6.940;2023-08-21T08:07:19;101455.63;;;39.21;29.17
13456;BME280;6800;50.940;6.940;2023-08-21T08:11:20;101461.06;;;38.78;29.36
13456;BME280;6800;50.940;6.940;2023-08-21T08:15:22;101452.34;;;39.24;29.35
13456;BME280;6800;50.940;6.940;2023-08-21T08:19:24;101448.72;;;39.99;26.89
13456;BME280;6800;50.940;6.940;2023-08-21T08:23:25;101463.91;;;39.85;28.44
13456;BME280;6800;50.940;6.940;2023-08-21T08:27:26;101458.09;;;40.08;26.55
13456;BME280;6800;50.940;6.940;2023-08-21T08:31:28;101461.66;;;40.13;27.57
13456;BME280;6800;50.940;6.940;2023-08-21T08:35:29;101458.78;;;39.61;28.48
13456;BME280;6800;50.940;6.940;2023-08-21T08:39:31;101451.63;;;38.47;29.97
13456;BME280;6800;50.940;6.940;2023-08-21T08:43:35;101448.91;;;39.92;27.74
13456;BME280;6800;50.940;6.940;2023-08-21T08:47:41;101442.00;;;39.85;28.14
13456;BME280;6800;50.940;6.940;2023-08-21T08:51:43;101440.63;;;39.82;28.25
13456;BME280;6800;50.940;6.940;2023-08-21T08:55:45;101445.34;;;40.75;26.55
13456;BME280;6800;50.940;6.940;2023-08-21T08:59:46;101437.38;;;42.06;24.79
13456;BME280;6800;50.940;6.940;2023-08-21T09:03:47;101450.00;;;41.87;25.20
13456;BME280;6800;50.940;6.940;2023-08-21T09:08:10;101439.88;;;41.67;25.31
13456;BME280;6800;50.940;6.940;2023-08-21T09:12:13;101441.94;;;42.56;24.55
13456;BME280;6800;50.940;6.940;2023-08-21T09:16:15;101446.00;;;42.68;24.54
13456;BME280;6800;50.940;6.940;2023-08-21T09:20:18;101459.34;;;41.76;25.18
13456;BME280;6800;50.940;6.940;2023-08-21T09:24:19;101452.75;;;41.82;25.36
13456;BME280;6800;50.940;6.940;2023-08-21T09:28:21;101454.66;;;42.27;24.84
13456;BME280;6800;50.940;6.940;2023-08-21T09:32:23;101458.53;;;42.06;25.12
13456;BME280;6800;50.940;6.940;2023-08-21T09:36:24;101446.91;;;42.39;24.66
13456;BME280;6800;50.940;6.940;2023-08-21T09:40:25;101455.44;;;42.47;24.81
13456;BME280;6800;50.940;6.940;2023-08-21T09:44:27;101449.41;;;42.25;24.51
13456;BME280;6800;50.940;6.940;2023-08-21T09:48:29;101449.94;;;42.37;24.35
13456;BME280;6800;50.940;6.940;2023-08-21T09:52:31;101436.28;;;41.67;25.34
13456;BME280;6800;50.940;6.940;2023-08-21T09:56:33;101436.75;;;41.23;26.34
13456;BME280;6800;50.940;6.940;2023-08-21T10:00:36;101437.31;;;42.36;24.49
13456;BME280;6800;50.940;6.940;2023-08-21T10:04:39;101446.84;;;40.51;26.66
13456;BME280;6800;50.940;6.940;2023-08-21T10:08:42;101445.25;;;40.55;27.18
13456;BME280;6800;50.940;6.940;2023-08-21T10:12:46;101442.72;;;40.43;27.13
13456;BME280;6800;50.940;6.940;2023-08-21T10:16:50;101431.31;;;41.89;25.12
13456;BME280;6800;50.940;6.940;2023-08-21T10:20:53;101424.50;;;41.71;25.51
13456;BME280;6800;50.940;6.940;2023-08-21T10:24:59;101428.03;;;41.87;25.31
13456;BME280;6800;50.940;6.940;2023-08-21T10:29:02;101430.31;;;43.33;23.78
13456;BME280;6800;50.940;6.940;2023-08-21T10:33:04;101423.19;;;43.22;23.68
13456;BME280;6800;50.940;6.940;2023-08-21T10:37:07;101431.56;;;43.02;24.24
13456;BME280;6800;50.940;6.940;2023-08-21T10:41:11;101426.03;;;43.51;22.96
13456;BME280;6800;50.940;6.940;2023-08-21T10:45:13;101423.06;;;42.04;25.13
13456;BME280;6800;50.940;6.940;2023-08-21T10:49:14;101423.66;;;43.73;22.87
13456;BME280;6800;50.940;6.940;2023-08-21T10:53:15;101426.28;;;43.54;23.42
13456;BME280;6800;50.940;6.940;2023-08-21T10:57:17;101421.06;;;43.14;23.69
13456;BME280;6800;50.940;6.940;2023-08-21T11:01:19;101422.81;;;42.85;24.09
13456;BME280;6800;50.940;6.940;2023-08-21T11:05:20;101424.34;;;44.41;22.21
13456;BME280;6800;50.940;6.940;2023-08-21T11:09:22;101423.91;;;41.54;25.57
13456;BME280;6800;50.940;6.940;2023-08-21T11:13:24;101418.69;;;41.63;25.60
13456;BME280;6800;50.940;6.940;2023-08-21T11:17:25;101419.78;;;41.92;24.95
13456;BME280;6800;50.940;6.940;2023-08-21T11:21:27;101428.28;;;39.80;27.56
13456;BME280;6800;50.940;6.940;2023-08-21T11:25:29;101429.88;;;40.49;26.53
13456;BME280;6800;50.940;6.940;2023-08-21T11:29:45;101428.84;;;41.62;25.72
13456;BME280;6800;50.940;6.940;2023-08-21T11:33:50;101426.03;;;41.12;25.99
13456;BME280;6800;50.940;6.940;2023-08-21T11:37:52;101419.25;;;41.95;25.28
13456;BME280;6800;50.940;6.940;2023-08-21T11:41:56;101424.75;;;42.05;25.61
13456;BME280;6800;50.940;6.940;2023-08-21T11:45:58;101430.94;;;43.10;24.08
13456;BME280;6800;50.940;6.940;2023-08-21T11:50:04;101416.50;;;42.94;24.07
13456;BME280;6800;50.940;6.940;2023-08-21T11:54:06;101424.50;;;43.34;22.87
13456;BME280;6800;50.940;6.940;2023-08-21T11:58:08;101420.34;;;41.89;24.54
13456;BME280;6800;50.940;6.940;2023-08-21T12:02:22;101420.13;;;40.26;26.61
13456;BME280;6800;50.940;6.940;2023-08-21T12:06:25;101427.75;;;39.02;28.36
13456;BME280;6800;50.940;6.940;2023-08-21T12:10:28;101425.78;;;40.52;26.19
13456;BME280;6800;50.940;6.940;2023-08-21T12:14:30;101420.38;;;39.03;27.89
13456;BME280;6800;50.940;6.940;2023-08-21T12:18:31;101416.31;;;39.06;28.03
13456;BME280;6800;50.940;6.940;2023-08-21T12:22:33;101413.63;;;37.91;30.42
13456;BME280;6800;50.940;6.940;2023-08-21T12:26:34;101408.06;;;37.69;29.60
13456;BME280;6800;50.940;6.940;2023-08-21T12:30:49;101410.56;;;37.26;30.44
13456;BME280;6800;50.940;6.940;2023-08-21T12:34:51;101411.25;;;37.05;30.21
13456;BME280;6800;50.940;6.940;2023-08-21T12:38:53;101409.41;;;36.82;29.83
13456;BME280;6800;50.940;6.940;2023-08-21T12:42:54;101407.63;;;37.16;30.57
13456;BME280;6800;50.940;6.940;2023-08-21T12:46:56;101409.97;;;37.07;30.47
13456;BME280;6800;50.940;6.940;2023-08-21T12:50:57;101399.47;;;36.88;30.83
13456;BME280;6800;50.940;6.940;2023-08-21T12:54:58;101399.59;;;36.18;31.51
13456;BME280;6800;50.940;6.940;2023-08-21T12:59:02;101410.78;;;36.10;31.67
13456;BME280;6800;50.940;6.940;2023-08-21T13:03:04;101401.00;;;36.09;31.04
13456;BME280;6800;50.940;6.940;2023-08-21T13:07:06;101396.31;;;35.63;31.42
13456;BME280;6800;50.940;6.940;2023-08-21T13:11:07;101408.41;;;35.08;33.13
13456;BME280;6800;50.940;6.940;2023-08-21T13:15:09;101398.53;;;35.13;32.76
13456;BME280;6800;50.940;6.940;2023-08-21T13:19:10;101395.78;;;35.43;32.86
13456;BME280;6800;50.940;6.940;2023-08-21T13:23:12;101403.38;;;35.53;33.06
13456;BME280;6800;50.940;6.940;2023-08-21T13:27:13;101402.31;;;34.76;33.19
13456;BME280;6800;50.940;6.940;2023-08-21T13:31:15;101394.78;;;35.26;33.20
13456;BME280;6800;50.940;6.940;2023-08-21T13:35:16;101397.00;;;34.70;32.99
13456;BME280;6800;50.940;6.940;2023-08-21T13:39:18;101394.41;;;34.75;33.44
13456;BME280;6800;50.940;6.940;2023-08-21T13:43:20;101394.34;;;34.99;32.20
13456;BME280;6800;50.940;6.940;2023-08-21T13:47:22;101392.69;;;34.80;32.26
13456;BME280;6800;50.940;6.940;2023-08-21T13:51:24;101386.34;;;34.68;32.59
13456;BME280;6800;50.940;6.940;2023-08-21T13:55:26;101384.09;;;34.04;33.42
13456;BME280;6800;50.940;6.940;2023-08-21T13:59:27;101374.41;;;34.15;33.59
13456;BME280;6800;50.940;6.940;2023-08-21T14:03:29;101374.31;;;34.94;32.38
13456;BME280;6800;50.940;6.940;2023-08-21T14:07:31;101376.41;;;34.80;31.69
13456;BME280;6800;50.940;6.940;2023-08-21T14:11:32;101366.06;;;34.16;32.76
13456;BME280;6800;50.940;6.940;2023-08-21T14:15:34;101362.38;;;34.29;33.54
13456;BME280;6800;50.940;6.940;2023-08-21T14:19:36;101364.19;;;34.53;32.64
13456;BME280;6800;50.940;6.940;2023-08-21T14:23:37;101361.56;;;34.65;32.13
13456;BME280;6800;50.940;6.940;2023-08-21T14:27:40;101354.53;;;34.57;32.64
13456;BME280;6800;50.940;6.940;2023-08-21T14:31:42;101349.63;;;34.84;32.11
13456;BME280;6800;50.940;6.940;2023-08-21T14:35:43;101347.84;;;34.89;31.73
13456;BME280;6800;50.940;6.940;2023-08-21T14:39:45;101356.16;;;34.76;31.89
13456;BME280;6800;50.940;6.940;2023-08-21T14:43:46;101351.28;;;34.48;31.90
13456;BME280;6800;50.940;6.940;2023-08-21T14:47:47;101346.91;;;33.37;33.51
13456;BME280;6800;50.940;6.940;2023-08-21T14:51:49;101339.00;;;34.28;32.81
13456;BME280;6800;50.940;6.940;2023-08-21T14:55:51;101348.06;;;34.58;32.40
13456;BME280;6800;50.940;6.940;2023-08-21T14:59:52;101338.56;;;34.31;32.13
13456;BME280;6800;50.940;6.940;2023-08-21T15:03:53;101345.03;;;34.30;31.80
13456;BME280;6800;50.940;6.940;2023-08-21T15:07:55;101333.97;;;34.13;32.33
13456;BME280;6800;50.940;6.940;2023-08-21T15:11:57;101326.59;;;34.20;31.71
13456;BME280;6800;50.940;6.940;2023-08-21T15:15:58;101331.31;;;34.07;32.72
13456;BME280;6800;50.940;6.940;2023-08-21T15:20:00;101327.72;;;34.31;31.53
13456;BME280;6800;50.940;6.940;2023-08-21T15:24:01;101326.34;;;34.22;31.31
13456;BME280;6800;50.940;6.940;2023-08-21T15:28:05;101322.13;;;34.26;31.42
13456;BME280;6800;50.940;6.940;2023-08-21T15:32:07;101313.00;;;34.02;32.30
13456;BME280;6800;50.940;6.940;2023-08-21T15:36:09;101309.28;;;33.97;32.72
13456;BME280;6800;50.940;6.940;2023-08-21T15:40:10;101298.16;;;33.87;32.52
13456;BME280;6800;50.940;6.940;2023-08-21T15:44:12;101309.66;;;33.57;32.86
13456;BME280;6800;50.940;6.940;2023-08-21T15:48:13;101307.13;;;33.62;33.19
13456;BME280;6800;50.940;6.940;2023-08-21T15:52:15;101305.19;;;34.12;32.37
13456;BME280;6800;50.940;6.940;2023-08-21T15:56:16;101289.84;;;33.81;32.94
13456;BME280;6800;50.940;6.940;2023-08-21T16:00:18;101301.75;;;33.80;33.21
13456;BME280;6800;50.940;6.940;2023-08-21T16:04:22;101300.53;;;33.76;33.49
13456;BME280;6800;50.940;6.940;2023-08-21T16:08:24;101298.72;;;33.70;33.76
13456;BME280;6800;50.940;6.940;2023-08-21T16:12:26;101293.00;;;32.98;34.41
13456;BME280;6800;50.940;6.940;2023-08-21T16:16:27;101293.75;;;32.29;35.78
13456;BME280;6800;50.940;6.940;2023-08-21T16:20:29;101294.16;;;33.15;34.61
13456;BME280;6800;50.940;6.940;2023-08-21T16:24:31;101286.19;;;33.45;33.83
13456;BME280;6800;50.940;6.940;2023-08-21T16:28:32;101288.72;;;33.46;33.69
13456;BME280;6800;50.940;6.940;2023-08-21T16:32:34;101296.53;;;33.61;33.23
13456;BME280;6800;50.940;6.940;2023-08-21T16:36:35;101290.94;;;33.56;33.41
13456;BME280;6800;50.940;6.940;2023-08-21T16:40:36;101288.47;;;33.48;33.66
13456;BME280;6800;50.940;6.940;2023-08-21T16:44:38;101288.88;;;33.51;33.52
13456;BME280;6800;50.940;6.940;2023-08-21T16:48:39;101291.47;;;33.40;33.49
13456;BME280;6800;50.940;6.940;2023-08-21T16:52:41;101288.13;;;33.13;34.00
13456;BME280;6800;50.940;6.940;2023-08-21T16:56:42;101284.53;;;33.19;34.39
13456;BME280;6800;50.940;6.940;2023-08-21T17:00:44;101284.06;;;33.04;34.03
13456;BME280;6800;50.940;6.940;2023-08-21T17:04:45;101277.97;;;33.08;34.32
13456;BME280;6800;50.940;6.940;2023-08-21T17:08:47;101274.94;;;32.92;34.88
13456;BME280;6800;50.940;6.940;2023-08-21T17:12:48;101267.03;;;32.59;35.24
13456;BME280;6800;50.940;6.940;2023-08-21T17:16:50;101268.03;;;32.65;35.23
13456;BME280;6800;50.940;6.940;2023-08-21T17:20:52;101258.69;;;32.61;35.21
13456;BME280;6800;50.940;6.940;2023-08-21T17:24:53;101257.84;;;32.60;35.13
13456;BME280;6800;50.940;6.940;2023-08-21T17:29:14;101263.81;;;32.24;36.02
13456;BME280;6800;50.940;6.940;2023-08-21T17:33:15;101270.44;;;32.35;35.45
13456;BME280;6800;50.940;6.940;2023-08-21T17:37:17;101268.31;;;32.44;35.58
13456;BME280;6800;50.940;6.940;2023-08-21T17:41:19;101268.09;;;32.45;35.63
13456;BME280;6800;50.940;6.940;2023-08-21T17:45:22;101279.59;;;32.34;36.02
13456;BME280;6800;50.940;6.940;2023-08-21T17:49:23;101274.22;;;32.27;36.29
13456;BME280;6800;50.940;6.940;2023-08-21T17:53:31;101281.09;;;32.23;36.17
13456;BME280;6800;50.940;6.940;2023-08-21T17:57:33;101283.41;;;32.13;36.56
13456;BME280;6800;50.940;6.940;2023-08-21T18:01:34;101286.97;;;32.01;36.50
13456;BME280;6800;50.940;6.940;2023-08-21T18:05:36;101282.00;;;31.91;37.09
13456;BME280;6800;50.940;6.940;2023-08-21T18:09:38;101285.97;;;31.69;37.02
13456;BME280;6800;50.940;6.940;2023-08-21T18:13:39;101278.31;;;31.66;37.40
13456;BME280;6800;50.940;6.940;2023-08-21T18:17:41;101275.19;;;31.56;37.72
13456;BME280;6800;50.940;6.940;2023-08-21T18:21:43;101283.09;;;31.51;37.75
13456;BME280;6800;50.940;6.940;2023-08-21T18:25:47;101281.84;;;31.47;37.83
13456;BME280;6800;50.940;6.940;2023-08-21T18:29:49;101289.72;;;31.35;38.46
13456;BME280;6800;50.940;6.940;2023-08-21T18:33:50;101285.75;;;31.25;38.34
13456;BME280;6800;50.940;6.940;2023-08-21T18:37:51;101292.19;;;31.17;38.62
13456;BME280;6800;50.940;6.940;2023-08-21T18:41:53;101296.34;;;31.07;38.56
13456;BME280;6800;50.940;6.940;2023-08-21T18:45:57;101290.53;;;31.16;39.19
13456;BME280;6800;50.940;6.940;2023-08-21T18:49:59;101294.44;;;31.07;38.82
13456;BME280;6800;50.940;6.940;2023-08-21T18:54:00;101300.19;;;30.84;39.55
13456;BME280;6800;50.940;6.940;2023-08-21T18:58:02;101304.19;;;30.95;39.21
13456;BME280;6800;50.940;6.940;2023-08-21T19:02:03;101310.41;;;30.89;39.38
13456;BME280;6800;50.940;6.940;2023-08-21T19:06:05;101315.09;;;30.74;39.82
13456;BME280;6800;50.940;6.940;2023-08-21T19:10:07;101320.84;;;30.51;40.59
13456;BME280;6800;50.940;6.940;2023-08-21T19:14:09;101320.88;;;30.71;40.45
13456;BME280;6800;50.940;6.940;2023-08-21T19:18:10;101316.53;;;30.63;40.65
13456;BME280;6800;50.940;6.940;2023-08-21T19:22:12;101316.66;;;30.42;40.73
13456;BME280;6800;50.940;6.940;2023-08-21T19:26:13;101313.56;;;30.52;41.19
13456;BME280;6800;50.940;6.940;2023-08-21T19:30:15;101315.78;;;30.35;41.71
13456;BME280;6800;50.940;6.940;2023-08-21T19:34:16;101311.38;;;30.28;41.94
13456;BME280;6800;50.940;6.940;2023-08-21T19:38:22;101313.06;;;30.01;42.57
13456;BME280;6800;50.940;6.940;2023-08-21T19:42:24;101315.38;;;30.04;42.01
13456;BME280;6800;50.940;6.940;2023-08-21T19:46:26;101322.88;;;30.08;42.52
13456;BME280;6800;50.940;6.940;2023-08-21T19:50:27;101319.53;;;30.06;42.36
13456;BME280;6800;50.940;6.940;2023-08-21T19:54:29;101313.31;;;30.06;42.88
13456;BME280;6800;50.940;6.940;2023-08-21T19:58:30;101315.00;;;30.07;42.67
13456;BME280;6800;50.940;6.940;2023-08-21T20:02:32;101313.28;;;29.99;42.64
13456;BME280;6800;50.940;6.940;2023-08-21T20:06:37;101319.13;;;30.03;42.75
13456;BME280;6800;50.940;6.940;2023-08-21T20:10:39;101316.75;;;29.93;42.75
13456;BME280;6800;50.940;6.940;2023-08-21T20:14:44;101315.75;;;29.94;43.35
13456;BME280;6800;50.940;6.940;2023-08-21T20:18:45;101311.97;;;29.89;43.01
13456;BME280;6800;50.940;6.940;2023-08-21T20:22:47;101318.56;;;29.86;43.90
13456;BME280;6800;50.940;6.940;2023-08-21T20:26:48;101307.00;;;29.92;43.99
13456;BME280;6800;50.940;6.940;2023-08-21T20:30:50;101319.81;;;29.84;44.07
13456;BME280;6800;50.940;6.940;2023-08-21T20:34:52;101314.19;;;29.79;43.82
13456;BME280;6800;50.940;6.940;2023-08-21T20:38:53;101327.94;;;29.69;43.57
13456;BME280;6800;50.940;6.940;2023-08-21T20:42:55;101325.41;;;29.61;43.59
13456;BME280;6800;50.940;6.940;2023-08-21T20:46:59;101320.91;;;29.68;44.10
13456;BME280;6800;50.940;6.940;2023-08-21T20:51:01;101322.00;;;29.53;44.58
13456;BME280;6800;50.940;6.940;2023-08-21T20:55:02;101314.50;;;29.48;44.79
13456;BME280;6800;50.940;6.940;2023-08-21T20:59:04;101324.41;;;29.41;44.62
13456;BME280;6800;50.940;6.940;2023-08-21T21:03:05;101334.22;;;29.27;44.96
13456;BME280;6800;50.940;6.940;2023-08-21T21:07:07;101325.28;;;29.27;45.24
13456;BME280;6800;50.940;6.940;2023-08-21T21:11:09;101328.81;;;29.27;45.47
13456;BME280;6800;50.940;6.940;2023-08-21T21:15:10;101318.00;;;29.21;45.50
13456;BME280;6800;50.940;6.940;2023-08-21T21:19:12;101327.19;;;29.12;45.59
13456;BME280;6800;50.940;6.940;2023-08-21T21:23:13;101321.81;;;29.12;45.82
13456;BME280;6800;50.940;6.940;2023-08-21T21:27:14;101322.69;;;28.98;46.50